createdAt,value
2023-05-29T00:02:02.954Z,14.57
2023-05-29T00:04:29.387Z,14.61
2023-05-29T00:06:56.451Z,14.60
2023-05-29T00:09:22.831Z,14.53
2023-05-29T00:11:52.955Z,14.63
2023-05-29T00:14:20.584Z,14.37
2023-05-29T00:16:51.180Z,14.48
2023-05-29T00:19:18.012Z,14.32
2023-05-29T00:21:44.643Z,14.26
2023-05-29T00:24:11.048Z,14.20
2023-05-29T00:26:37.510Z,14.27
2023-05-29T00:29:04.104Z,14.30
2023-05-29T00:31:33.061Z,14.32
2023-05-29T00:33:59.517Z,14.05
2023-05-29T00:36:26.751Z,14.01
2023-05-29T00:38:53.244Z,14.18
2023-05-29T00:41:20.457Z,14.17
2023-05-29T00:43:46.881Z,14.04
2023-05-29T00:46:15.264Z,14.15
2023-05-29T00:48:45.336Z,14.18
2023-05-29T00:51:13.052Z,14.03
2023-05-29T00:53:43.367Z,14.02
2023-05-29T00:56:11.000Z,13.95
2023-05-29T00:58:37.757Z,13.75
2023-05-29T01:01:04.395Z,13.59
2023-05-29T01:03:33.245Z,13.51
2023-05-29T01:06:00.065Z,13.67
2023-05-29T01:08:26.488Z,13.70
2023-05-29T01:11:00.195Z,13.59
2023-05-29T01:13:32.556Z,13.41
2023-05-29T01:15:59.025Z,13.63
2023-05-29T01:18:49.005Z,13.68
2023-05-29T01:21:51.127Z,13.51
2023-05-29T01:24:47.225Z,13.40
2023-05-29T01:27:18.473Z,13.43
2023-05-29T01:29:48.655Z,13.37
2023-05-29T01:32:15.367Z,13.27
2023-05-29T01:34:41.829Z,13.36
2023-05-29T01:37:10.844Z,13.21
2023-05-29T01:39:37.673Z,13.18
2023-05-29T01:42:05.862Z,13.17
2023-05-29T01:44:35.314Z,13.08
2023-05-29T01:47:03.589Z,12.99
2023-05-29T01:49:32.359Z,13.13
2023-05-29T01:52:01.315Z,13.09
2023-05-29T01:54:27.799Z,12.91
2023-05-29T01:56:54.248Z,13.15
2023-05-29T01:59:22.345Z,12.95
2023-05-29T02:01:49.093Z,12.64
2023-05-29T02:04:15.800Z,12.73
2023-05-29T02:06:42.280Z,12.92
2023-05-29T02:09:08.850Z,12.87
2023-05-29T02:11:35.255Z,12.83
2023-05-29T02:14:04.443Z,12.85
2023-05-29T02:16:34.334Z,13.06
2023-05-29T02:19:02.370Z,12.79
2023-05-29T02:21:28.856Z,12.93
2023-05-29T02:23:55.221Z,12.75
2023-05-29T02:26:21.720Z,12.83
2023-05-29T02:28:48.092Z,12.65
2023-05-29T02:31:14.481Z,12.55
2023-05-29T02:33:40.879Z,12.57
2023-05-29T02:36:11.031Z,12.56
2023-05-29T02:38:37.436Z,12.35
2023-05-29T02:41:03.843Z,12.60
2023-05-29T02:43:30.204Z,12.48
2023-05-29T02:45:56.682Z,12.64
2023-05-29T02:48:23.324Z,12.44
2023-05-29T02:50:49.686Z,12.49
2023-05-29T02:53:16.082Z,12.48
2023-05-29T02:55:43.723Z,12.50
2023-05-29T02:58:10.090Z,12.35
2023-05-29T03:00:36.434Z,12.56
2023-05-29T03:03:02.914Z,12.51
2023-05-29T03:05:29.377Z,12.37
2023-05-29T03:07:56.162Z,12.38
2023-05-29T03:10:23.067Z,12.31
2023-05-29T03:12:49.497Z,12.43
2023-05-29T03:15:16.516Z,12.34
2023-05-29T03:17:43.013Z,12.31
2023-05-29T03:20:14.489Z,12.22
2023-05-29T03:22:41.199Z,12.09
2023-05-29T03:25:08.963Z,12.27
2023-05-29T03:27:35.674Z,12.29
2023-05-29T03:30:10.628Z,12.42
2023-05-29T03:32:38.167Z,12.22
2023-05-29T03:35:05.338Z,12.19
2023-05-29T03:37:31.768Z,11.95
2023-05-29T03:39:58.483Z,12.10
2023-05-29T03:42:24.861Z,12.29
2023-05-29T03:44:52.521Z,12.11
2023-05-29T03:47:19.129Z,12.05
2023-05-29T03:49:45.753Z,11.82
2023-05-29T03:52:12.373Z,12.01
2023-05-29T03:54:39.040Z,12.02
2023-05-29T03:57:07.826Z,11.94
2023-05-29T03:59:34.360Z,11.86
2023-05-29T04:02:00.893Z,12.06
2023-05-29T04:04:27.981Z,11.86
2023-05-29T04:06:54.963Z,11.96
2023-05-29T04:09:21.355Z,11.75
2023-05-29T04:11:47.810Z,11.93
2023-05-29T04:14:14.193Z,11.99
2023-05-29T04:16:40.685Z,11.83
2023-05-29T04:19:07.324Z,11.67
2023-05-29T04:21:33.883Z,11.61
2023-05-29T04:24:01.711Z,11.55
2023-05-29T04:26:28.175Z,11.65
2023-05-29T04:28:58.140Z,11.73
2023-05-29T04:31:27.265Z,11.72
2023-05-29T04:33:55.905Z,11.81
2023-05-29T04:36:26.911Z,11.69
2023-05-29T04:39:04.709Z,11.65
2023-05-29T04:41:32.084Z,11.75
2023-05-29T04:44:00.268Z,11.69
2023-05-29T04:46:33.023Z,11.70
2023-05-29T04:48:59.758Z,11.55
2023-05-29T04:51:26.172Z,11.84
2023-05-29T04:53:52.720Z,11.75
2023-05-29T04:56:19.550Z,11.91
2023-05-29T04:58:47.989Z,11.90
2023-05-29T05:01:15.332Z,12.14
2023-05-29T05:03:42.829Z,12.16
2023-05-29T05:06:10.400Z,12.35
2023-05-29T05:08:37.619Z,12.31
2023-05-29T05:11:04.599Z,12.37
2023-05-29T05:13:31.090Z,12.45
2023-05-29T05:15:57.564Z,12.51
2023-05-29T05:18:24.025Z,12.62
2023-05-29T05:20:58.215Z,12.70
2023-05-29T05:23:24.801Z,12.87
2023-05-29T05:25:51.921Z,12.85
2023-05-29T05:28:18.354Z,12.99
2023-05-29T05:30:44.844Z,13.12
2023-05-29T05:33:11.407Z,13.15
2023-05-29T05:35:38.904Z,13.38
2023-05-29T05:38:05.581Z,13.50
2023-05-29T05:40:33.277Z,13.37
2023-05-29T05:43:08.199Z,13.47
2023-05-29T05:45:59.796Z,13.61
2023-05-29T05:48:27.571Z,13.55
2023-05-29T05:50:54.739Z,13.87
2023-05-29T05:53:22.375Z,13.87
2023-05-29T05:55:49.377Z,13.89
2023-05-29T05:58:16.262Z,14.12
2023-05-29T06:00:44.331Z,14.06
2023-05-29T06:03:11.284Z,14.20
2023-05-29T06:05:53.144Z,14.19
2023-05-29T06:08:19.945Z,14.27
2023-05-29T06:10:46.955Z,14.50
2023-05-29T06:13:14.335Z,14.79
2023-05-29T06:15:46.601Z,14.52
2023-05-29T06:18:13.828Z,14.60
2023-05-29T06:20:41.061Z,14.56
2023-05-29T06:23:08.761Z,14.78
2023-05-29T06:25:37.817Z,14.79
2023-05-29T06:28:06.964Z,15.13
2023-05-29T06:30:34.431Z,15.00
2023-05-29T06:33:06.741Z,14.99
2023-05-29T06:35:35.318Z,15.32
2023-05-29T06:38:01.778Z,15.30
2023-05-29T06:40:28.257Z,15.35
2023-05-29T06:42:55.340Z,15.46
2023-05-29T06:45:35.995Z,15.48
2023-05-29T06:48:02.622Z,15.53
2023-05-29T06:50:29.173Z,15.61
2023-05-29T06:53:00.360Z,15.69
2023-05-29T06:55:28.766Z,15.79
2023-05-29T06:57:57.812Z,15.83
2023-05-29T07:00:26.041Z,15.88
2023-05-29T07:03:20.009Z,15.94
2023-05-29T07:05:46.885Z,16.01
2023-05-29T07:08:13.280Z,16.08
2023-05-29T07:10:39.796Z,16.08
2023-05-29T07:13:07.313Z,16.14
2023-05-29T07:15:34.492Z,16.20
2023-05-29T07:18:01.500Z,16.24
2023-05-29T07:20:28.921Z,16.28
2023-05-29T07:22:59.133Z,16.41
2023-05-29T07:25:27.198Z,16.49
2023-05-29T07:27:53.600Z,16.59
2023-05-29T07:30:20.021Z,16.60
2023-05-29T07:32:46.861Z,16.64
2023-05-29T07:35:13.339Z,16.78
2023-05-29T07:37:39.814Z,16.84
2023-05-29T07:40:06.868Z,16.93
2023-05-29T07:43:09.493Z,17.02
2023-05-29T07:45:56.449Z,17.13
2023-05-29T07:48:23.746Z,17.18
2023-05-29T07:50:52.950Z,17.23
2023-05-29T07:53:19.478Z,17.38
2023-05-29T07:55:47.512Z,17.43
2023-05-29T07:58:14.258Z,17.46
2023-05-29T08:00:41.054Z,17.51
2023-05-29T08:03:09.525Z,17.56
2023-05-29T08:05:54.426Z,17.60
2023-05-29T08:08:21.671Z,17.65
2023-05-29T08:10:48.042Z,17.71
2023-05-29T08:13:14.451Z,17.76
2023-05-29T08:15:43.767Z,17.80
2023-05-29T08:18:10.194Z,17.88
2023-05-29T08:20:36.691Z,17.98
2023-05-29T08:23:03.214Z,18.05
2023-05-29T08:25:29.593Z,18.18
2023-05-29T08:27:56.097Z,18.27
2023-05-29T08:30:22.876Z,18.35
2023-05-29T08:32:51.216Z,18.40
2023-05-29T08:35:17.697Z,18.46
2023-05-29T08:37:44.453Z,18.53
2023-05-29T08:40:11.945Z,18.62
2023-05-29T08:42:46.790Z,18.77
2023-05-29T08:45:15.543Z,18.90
2023-05-29T08:47:44.368Z,18.97
2023-05-29T08:50:14.346Z,19.02
2023-05-29T08:52:41.669Z,19.15
2023-05-29T08:55:08.390Z,19.17
2023-05-29T08:57:35.413Z,19.25
2023-05-29T09:00:02.231Z,19.37
2023-05-29T09:02:28.681Z,19.44
2023-05-29T09:04:55.315Z,19.54
2023-05-29T09:07:22.389Z,19.58
2023-05-29T09:09:49.468Z,19.64
2023-05-29T09:12:17.966Z,19.72
2023-05-29T09:14:46.158Z,19.84
2023-05-29T09:17:13.623Z,19.87
2023-05-29T09:19:41.593Z,19.90
2023-05-29T09:22:11.031Z,19.96
2023-05-29T09:24:39.462Z,20.02
2023-05-29T09:27:06.339Z,20.10
2023-05-29T09:29:33.868Z,20.21
2023-05-29T09:32:04.201Z,20.30
2023-05-29T09:34:32.235Z,20.40
2023-05-29T09:37:09.450Z,20.49
2023-05-29T09:39:54.528Z,20.57
2023-05-29T09:42:22.750Z,20.52
2023-05-29T09:44:54.703Z,20.60
2023-05-29T09:47:22.701Z,20.73
2023-05-29T09:49:49.102Z,20.89
2023-05-29T09:52:16.710Z,21.03
2023-05-29T09:54:47.441Z,21.04
2023-05-29T09:57:15.805Z,21.08
2023-05-29T09:59:45.993Z,21.20
2023-05-29T10:02:14.802Z,21.25
2023-05-29T10:04:41.535Z,21.31
2023-05-29T10:07:17.305Z,21.41
2023-05-29T10:09:49.240Z,21.53
2023-05-29T10:12:21.260Z,21.57
2023-05-29T10:14:50.984Z,21.67
2023-05-29T10:17:23.873Z,21.82
2023-05-29T10:19:51.722Z,21.88
2023-05-29T10:22:21.625Z,22.03
2023-05-29T10:24:51.578Z,21.99
2023-05-29T10:27:19.007Z,22.07
2023-05-29T10:29:49.952Z,22.18
2023-05-29T10:32:33.709Z,22.18
2023-05-29T10:35:03.426Z,22.18
2023-05-29T10:37:51.832Z,22.30
2023-05-29T10:40:24.443Z,22.44
2023-05-29T10:42:55.477Z,22.52
2023-05-29T10:45:33.690Z,22.61
2023-05-29T10:48:09.421Z,22.72
2023-05-29T10:50:36.714Z,22.81
2023-05-29T10:53:03.276Z,22.97
2023-05-29T10:55:37.091Z,23.07
2023-05-29T10:58:13.634Z,23.15
2023-05-29T11:00:43.715Z,23.24
2023-05-29T11:03:11.739Z,23.33
2023-05-29T11:06:20.849Z,23.41
2023-05-29T11:08:57.982Z,23.53
2023-05-29T11:11:32.399Z,23.65
2023-05-29T11:14:03.988Z,23.72
2023-05-29T11:16:33.500Z,23.77
2023-05-29T11:19:12.940Z,23.67
2023-05-29T11:21:55.980Z,23.73
2023-05-29T11:24:27.096Z,23.77
2023-05-29T11:26:55.452Z,23.91
2023-05-29T11:29:28.998Z,23.99
2023-05-29T11:32:08.965Z,24.06
2023-05-29T11:34:40.055Z,24.08
2023-05-29T11:37:06.970Z,24.07
2023-05-29T11:39:39.437Z,24.05
2023-05-29T11:42:07.503Z,24.08
2023-05-29T11:44:33.882Z,24.18
2023-05-29T11:47:04.944Z,24.36
2023-05-29T11:49:34.177Z,24.41
2023-05-29T11:52:18.205Z,24.45
2023-05-29T11:54:49.592Z,24.52
2023-05-29T11:57:20.724Z,24.46
2023-05-29T11:59:48.177Z,24.51
2023-05-29T12:02:15.202Z,24.58
2023-05-29T12:04:41.919Z,24.52
2023-05-29T12:07:19.134Z,24.44
2023-05-29T12:09:45.508Z,24.55
2023-05-29T12:12:11.890Z,24.55
2023-05-29T12:14:38.249Z,24.61
2023-05-29T12:17:06.040Z,24.64
2023-05-29T12:19:32.538Z,24.68
2023-05-29T12:21:59.046Z,24.76
2023-05-29T12:24:32.164Z,24.74
2023-05-29T12:27:08.450Z,24.73
2023-05-29T12:29:34.928Z,24.71
2023-05-29T12:32:01.588Z,24.66
2023-05-29T12:34:37.108Z,24.66
2023-05-29T12:37:14.252Z,24.56
2023-05-29T12:39:41.423Z,24.58
2023-05-29T12:42:08.491Z,24.65
2023-05-29T12:44:35.819Z,24.69
2023-05-29T12:47:02.287Z,24.71
2023-05-29T12:49:30.238Z,24.68
2023-05-29T12:52:06.449Z,24.80
2023-05-29T12:54:32.863Z,24.84
2023-05-29T12:57:01.985Z,24.85
2023-05-29T12:59:28.379Z,24.85
2023-05-29T13:01:54.799Z,24.91
2023-05-29T13:04:21.173Z,24.89
2023-05-29T13:06:47.580Z,24.89
2023-05-29T13:09:14.221Z,24.88
2023-05-29T13:11:40.561Z,24.85
2023-05-29T13:14:06.943Z,24.78
2023-05-29T13:16:33.696Z,24.66
2023-05-29T13:19:00.276Z,24.67
2023-05-29T13:21:26.683Z,24.68
2023-05-29T13:23:53.110Z,24.67
2023-05-29T13:26:19.487Z,24.61
2023-05-29T13:28:45.877Z,24.35
2023-05-29T13:31:12.265Z,24.32
2023-05-29T13:33:38.657Z,24.19
2023-05-29T13:36:06.211Z,24.18
2023-05-29T13:38:32.622Z,24.17
2023-05-29T13:40:59.025Z,24.14
2023-05-29T13:43:35.770Z,24.18
2023-05-29T13:46:06.323Z,24.14
2023-05-29T13:48:36.072Z,24.24
2023-05-29T13:51:02.565Z,24.12
2023-05-29T13:53:28.929Z,24.07
2023-05-29T13:55:55.624Z,24.08
2023-05-29T13:58:22.208Z,24.06
2023-05-29T14:00:48.618Z,24.05
2023-05-29T14:03:15.081Z,24.12
2023-05-29T14:05:41.600Z,24.07
2023-05-29T14:08:08.029Z,24.01
2023-05-29T14:10:34.367Z,24.04
2023-05-29T14:13:00.781Z,23.92
2023-05-29T14:15:27.190Z,23.82
2023-05-29T14:17:53.608Z,23.85
2023-05-29T14:20:20.091Z,23.86
2023-05-29T14:22:46.480Z,23.67
2023-05-29T14:25:12.894Z,23.73
2023-05-29T14:27:39.265Z,23.63
2023-05-29T14:30:07.050Z,23.62
2023-05-29T14:32:33.500Z,23.50
2023-05-29T14:34:59.976Z,23.46
2023-05-29T14:37:26.522Z,23.43
2023-05-29T14:39:52.904Z,23.45
2023-05-29T14:42:19.342Z,23.44
2023-05-29T14:44:45.753Z,23.44
2023-05-29T14:47:12.163Z,23.35
2023-05-29T14:49:38.916Z,23.30
2023-05-29T14:52:05.750Z,23.25
2023-05-29T14:54:32.251Z,23.19
2023-05-29T14:56:58.665Z,23.13
2023-05-29T14:59:26.226Z,23.13
2023-05-29T15:01:54.376Z,23.05
2023-05-29T15:04:20.788Z,23.04
2023-05-29T15:06:55.227Z,23.00
2023-05-29T15:09:25.375Z,22.93
2023-05-29T15:11:51.713Z,22.90
2023-05-29T15:14:18.274Z,22.85
2023-05-29T15:16:45.754Z,22.83
2023-05-29T15:19:12.228Z,22.79
2023-05-29T15:21:38.657Z,22.81
2023-05-29T15:24:05.402Z,22.77
2023-05-29T15:26:31.810Z,22.73
2023-05-29T15:28:58.702Z,22.72
2023-05-29T15:31:26.203Z,22.70
2023-05-29T15:33:52.641Z,22.67
2023-05-29T15:36:21.115Z,22.69
2023-05-29T15:38:47.757Z,22.59
2023-05-29T15:41:14.192Z,22.57
2023-05-29T15:43:41.623Z,22.54
2023-05-29T15:46:09.217Z,22.53
2023-05-29T15:48:36.007Z,22.47
2023-05-29T15:51:02.418Z,22.42
2023-05-29T15:53:28.843Z,22.38
2023-05-29T15:55:55.687Z,22.39
2023-05-29T15:58:22.987Z,22.33
2023-05-29T16:00:49.797Z,22.32
2023-05-29T16:03:16.480Z,22.24
2023-05-29T16:05:42.804Z,22.23
2023-05-29T16:08:09.261Z,22.20
2023-05-29T16:10:36.437Z,22.19
2023-05-29T16:13:02.793Z,22.15
2023-05-29T16:15:29.272Z,22.13
2023-05-29T16:17:55.697Z,22.11
2023-05-29T16:20:23.380Z,22.09
2023-05-29T16:22:49.887Z,22.05
2023-05-29T16:25:16.666Z,22.07
2023-05-29T16:27:43.347Z,22.04
2023-05-29T16:30:10.491Z,22.01
2023-05-29T16:32:37.318Z,21.97
2023-05-29T16:35:04.744Z,21.97
2023-05-29T16:37:31.789Z,21.98
2023-05-29T16:39:58.362Z,21.96
2023-05-29T16:42:25.092Z,21.91
2023-05-29T16:44:53.408Z,21.86
2023-05-29T16:47:20.514Z,21.83
2023-05-29T16:49:46.954Z,21.83
2023-05-29T16:52:15.093Z,21.79
2023-05-29T16:54:41.764Z,21.74
2023-05-29T16:57:11.179Z,21.70
2023-05-29T16:59:38.456Z,21.70
2023-05-29T17:02:05.922Z,21.66
2023-05-29T17:04:34.478Z,21.64
2023-05-29T17:07:01.225Z,21.60
2023-05-29T17:09:28.194Z,21.60
2023-05-29T17:11:56.179Z,21.61
2023-05-29T17:14:23.613Z,21.49
2023-05-29T17:16:50.728Z,21.49
2023-05-29T17:19:17.206Z,21.47
2023-05-29T17:21:44.649Z,21.43
2023-05-29T17:24:11.239Z,21.39
2023-05-29T17:26:37.599Z,21.34
2023-05-29T17:29:03.942Z,21.33
2023-05-29T17:31:30.377Z,21.31
2023-05-29T17:33:57.919Z,21.27
2023-05-29T17:36:24.395Z,21.23
2023-05-29T17:38:52.884Z,21.18
2023-05-29T17:41:19.294Z,21.16
2023-05-29T17:43:45.707Z,21.16
2023-05-29T17:46:12.362Z,21.07
2023-05-29T17:48:38.915Z,21.04
2023-05-29T17:51:05.342Z,20.98
2023-05-29T17:53:31.775Z,21.00
2023-05-29T17:55:58.178Z,20.95
2023-05-29T17:58:24.699Z,20.92
2023-05-29T18:00:53.884Z,20.91
2023-05-29T18:03:20.329Z,20.85
2023-05-29T18:05:46.771Z,20.79
2023-05-29T18:08:13.124Z,20.72
2023-05-29T18:10:39.557Z,20.68
2023-05-29T18:13:06.001Z,20.62
2023-05-29T18:15:32.431Z,20.61
2023-05-29T18:17:58.844Z,20.57
2023-05-29T18:20:30.142Z,20.48
2023-05-29T18:22:59.496Z,20.49
2023-05-29T18:25:26.730Z,20.45
2023-05-29T18:27:53.253Z,20.46
2023-05-29T18:30:19.668Z,20.46
2023-05-29T18:32:46.182Z,20.41
2023-05-29T18:35:12.592Z,20.36
2023-05-29T18:37:40.048Z,20.33
2023-05-29T18:40:07.222Z,20.26
2023-05-29T18:42:33.621Z,20.23
2023-05-29T18:44:59.957Z,20.07
2023-05-29T18:47:26.366Z,20.00
2023-05-29T18:49:55.117Z,20.01
2023-05-29T18:52:23.343Z,20.00
2023-05-29T18:54:49.696Z,19.94
2023-05-29T18:57:16.106Z,19.87
2023-05-29T18:59:46.153Z,19.88
2023-05-29T19:02:12.687Z,19.87
2023-05-29T19:04:39.098Z,19.84
2023-05-29T19:07:06.282Z,19.83
2023-05-29T19:09:32.816Z,19.78
2023-05-29T19:11:59.182Z,19.73
2023-05-29T19:14:25.803Z,19.60
2023-05-29T19:16:52.200Z,19.60
2023-05-29T19:19:19.456Z,19.58
2023-05-29T19:21:46.384Z,19.52
2023-05-29T19:24:12.894Z,19.40
2023-05-29T19:26:42.638Z,19.34
2023-05-29T19:29:09.425Z,19.30
2023-05-29T19:31:36.259Z,19.31
2023-05-29T19:34:03.417Z,19.25
2023-05-29T19:36:29.939Z,19.13
2023-05-29T19:38:59.025Z,19.11
2023-05-29T19:41:26.048Z,19.11
2023-05-29T19:43:52.441Z,19.07
2023-05-29T19:46:19.024Z,19.02
2023-05-29T19:48:45.560Z,18.98
2023-05-29T19:51:12.626Z,18.87
2023-05-29T19:53:41.346Z,18.98
2023-05-29T19:56:08.372Z,18.95
2023-05-29T19:58:34.729Z,18.82
2023-05-29T20:01:01.586Z,18.71
2023-05-29T20:03:30.486Z,18.74
2023-05-29T20:05:57.294Z,18.74
2023-05-29T20:08:23.677Z,18.66
2023-05-29T20:10:58.093Z,18.73
2023-05-29T20:13:27.498Z,18.60
2023-05-29T20:15:54.060Z,18.47
2023-05-29T20:18:20.556Z,18.48
2023-05-29T20:20:47.949Z,18.47
2023-05-29T20:23:14.526Z,18.42
2023-05-29T20:25:41.162Z,18.40
2023-05-29T20:28:08.233Z,18.40
2023-05-29T20:30:34.750Z,18.33
2023-05-29T20:33:01.173Z,18.31
2023-05-29T20:35:27.584Z,18.30
2023-05-29T20:37:53.977Z,18.27
2023-05-29T20:40:21.422Z,18.27
2023-05-29T20:42:48.445Z,18.24
2023-05-29T20:45:15.614Z,18.17
2023-05-29T20:47:44.905Z,18.09
2023-05-29T20:50:15.088Z,18.07
2023-05-29T20:52:41.504Z,17.98
2023-05-29T20:55:08.314Z,18.01
2023-05-29T20:57:34.701Z,17.95
2023-05-29T21:00:01.476Z,17.86
2023-05-29T21:02:27.920Z,17.81
2023-05-29T21:04:54.326Z,17.66
2023-05-29T21:07:20.727Z,17.72
2023-05-29T21:09:47.091Z,17.70
2023-05-29T21:12:13.676Z,17.63
2023-05-29T21:14:40.134Z,17.69
2023-05-29T21:17:06.849Z,17.71
2023-05-29T21:19:33.218Z,17.60
2023-05-29T21:21:59.681Z,17.61
2023-05-29T21:24:26.651Z,17.57
2023-05-29T21:26:53.053Z,17.53
2023-05-29T21:29:19.416Z,17.51
2023-05-29T21:31:46.262Z,17.56
2023-05-29T21:34:12.682Z,17.42
2023-05-29T21:36:39.373Z,17.37
2023-05-29T21:39:06.342Z,17.27
2023-05-29T21:41:32.951Z,17.29
2023-05-29T21:43:59.292Z,17.25
2023-05-29T21:46:25.724Z,17.30
2023-05-29T21:48:52.106Z,17.26
2023-05-29T21:51:18.539Z,17.29
2023-05-29T21:53:44.878Z,17.30
2023-05-29T21:56:11.594Z,17.16
2023-05-29T21:58:37.934Z,17.18
2023-05-29T22:01:04.496Z,17.13
2023-05-29T22:03:31.208Z,17.12
2023-05-29T22:05:57.597Z,17.09
2023-05-29T22:08:24.269Z,17.20
2023-05-29T22:10:51.949Z,17.16
2023-05-29T22:13:20.570Z,17.08
2023-05-29T22:15:47.211Z,17.00
2023-05-29T22:18:13.565Z,16.96
2023-05-29T22:20:40.004Z,17.03
2023-05-29T22:23:16.875Z,16.84
2023-05-29T22:25:45.052Z,16.82
2023-05-29T22:28:12.977Z,16.83
2023-05-29T22:30:39.296Z,16.90
2023-05-29T22:33:05.687Z,16.85
2023-05-29T22:35:32.601Z,16.87
2023-05-29T22:37:59.523Z,16.90
2023-05-29T22:40:25.850Z,16.87
2023-05-29T22:42:52.197Z,16.74
2023-05-29T22:45:18.546Z,16.73
2023-05-29T22:47:45.553Z,16.66
2023-05-29T22:50:12.601Z,16.73
2023-05-29T22:52:39.683Z,16.67
2023-05-29T22:55:06.582Z,16.59
2023-05-29T22:57:33.699Z,16.60
2023-05-29T23:00:00.382Z,16.63
2023-05-29T23:02:28.420Z,16.70
2023-05-29T23:04:55.837Z,16.59
2023-05-29T23:07:22.817Z,16.63
2023-05-29T23:09:49.225Z,16.65
2023-05-29T23:12:15.580Z,16.60
2023-05-29T23:14:41.960Z,16.54
2023-05-29T23:17:08.429Z,16.46
2023-05-29T23:19:35.570Z,16.42
2023-05-29T23:22:02.899Z,16.40
2023-05-29T23:24:29.420Z,16.31
2023-05-29T23:26:56.114Z,16.29
2023-05-29T23:29:22.955Z,16.20
2023-05-29T23:31:49.608Z,16.07
2023-05-29T23:34:16.748Z,16.11
2023-05-29T23:36:46.653Z,16.13
2023-05-29T23:39:14.081Z,16.22
2023-05-29T23:41:41.908Z,16.15
2023-05-29T23:44:09.137Z,16.03
2023-05-29T23:46:36.476Z,15.90
2023-05-29T23:49:04.233Z,15.94
2023-05-29T23:51:31.315Z,16.08
2023-05-29T23:53:58.565Z,15.94
2023-05-29T23:56:26.299Z,15.89
2023-05-29T23:58:53.425Z,15.90
